Kezdőlap
METAR-TAF:

METAR-TAF

Repülőterek :

Ardmore, Oklahoma, Amerikai Egyesült Államok

földrajzi szélesség: 34-18-11N, földrajzi hosszúság: 097-01-10W, magasság: 232 m

Jelenlegi meteorológiai megfigyelések

A jelentés 1 órával és 8 perccel ezelõtt készült, 16:50 UTC
Dél-délnyugati szél 12 kt
Hőmérséklet 33°C
Páratartalom 46%
Légköri nyomás 1019 hPa
Látótávolság: 16.1 km
Derült ég

METAR: KADM 121650Z 20012KT 10SM CLR 33/20 A3008

Idő: 12:58 (17:58 UTC)


TAF: hiányzik

Meteorológiai megfigyelések és előrejelzések több, mint 4000 repülőtéren (METAR és TAF jelentéseket).

A térképen piros és sárga pontok jelzik az elérhető meteorológiai állomásokat.

Mozgassa az egeret a pont fölött, hogy megjelenjen az állomás neve.

Azután kattintson az időjárási megfigyelések és előrejelzések megtekintéséhez.

A térkép megváltoztatása: kattintson a fekete keresztel jelölt zöld gombra ráközelítéshez, a vonallal jelölt zöld gombra távolításhoz, vagy a zöld nyilakra a szomszédos térképek eléréséhez.


METAR-TAF: